Tiempo atmosférico en la estación meteorológica de Puerto De La Cruz, Santa Cruz de Tenerife (25 m.)



Fecha
DESCASC
Temp. máxima en grados centígrados (hora)
DESCASC
Temp. mínima en grados centígrados (hora)
DESCASC
Temp. media en grados centígrados
DESCASC
Racha de viento máxima en m/sg (hora)
DESCASC
Velocidad máxima media en intervalos de 10 minutos(hora)
DESCASC
Precipitaciones diarias en mm
DESCASC
Precipitaciones de 00:00 a 06:00 en mm
DESCASC
Precipitaciones de 06:00 a 12:00 en mm
DESCASC
Precipitaciones de 12:00 a 18:00 en mm
DESCASC
Precipitaciones de 18:00 a 24:00 en mm
DESCASC
16-04-2019 24 (15:30) 16.6 (07:00) 20.3 7.22 (18:40) 4.17 (18:40) 0 0 0 0 0
15-04-2019 24.3 (15:10) 16.4 (05:00) 20.3 6.11 (11:00) 5 (11:10) 0 0 0 0 0
14-04-2019 22.2 (16:20) 16 (00:00) 19.1 5 (12:10) 3.06 (12:10) 0 0 0 0 0
13-04-2019 22.4 (15:10) 16.5 (00:00) 19.4 8.33 (11:00) 6.39 (13:10) 0 0 0 0 0
12-04-2019 22.4 (16:50) 15.9 (00:00) 19.1 8.89 (15:10) 6.94 (15:20) 0 0 0 0 0
11-04-2019 22.5 (16:50) 15.6 (00:00) 19.1 8.06 (06:50) 6.39 (15:00) 0 0 0 0 0
10-04-2019 22.3 (17:30) 15.3 (00:00) 18.8 8.33 (11:40) 6.67 (11:40) 0 0 0 0 0
09-04-2019 22.1 (12:10) 15.3 (00:00) 18.7 8.89 (18:10) 7.22 (19:00) 0 0 0 0 0
08-04-2019 22.2 (15:00) 15.7 (00:00) 19 5.83 (11:00) 3.89 (11:30) 2.7 2.7 0 0 0
07-04-2019 22.5 (18:50) 14.2 (00:00) 18.3 4.72 (05:50) 2.5 (05:50) 0 0 0 0 0
06-04-2019 21.3 (18:10) 15.9 (00:00) 18.6 8.89 (16:30) 3.89 (01:10) 0.2 0.1 0.1 0 0
05-04-2019 20.7 (15:10) 15.8 (00:00) 18.3 7.22 (15:40) 3.33 (18:50) 0 0 0 0 0
04-04-2019 21.2 (14:10) 14.9 (00:00) 18.1 7.5 (13:10) 4.72 (20:30) 12.2 0.2 0.2 11.8 0
03-04-2019 21 (17:30) 15.2 (07:50) 18.1 7.78 (18:30) 5 (18:20) 2.4 0 0.2 0 2.2
02-04-2019 18.6 (16:50) 14.2 (00:00) 16.4 5.28 (00:40) 2.78 (04:00) 1.4 0.7 0.6 0 0.1
01-04-2019 23.4 (14:50) 14.5 (00:00) 18.9 6.39 (20:40) 3.61 (20:30) 6.1 0 0 0 6.1
31-03-2019 21.7 (13:40) 14.8 (00:00) 18.3 6.39 (03:40) 2.22 (13:10) 0 0 0 0 0
30-03-2019 21.3 (13:40) 14.2 (00:00) 17.7 6.11 (12:00) 4.72 (12:00) 8.5 0.5 8 0 0
29-03-2019 20.9 (10:20) 14.8 (00:00) 17.8 7.5 (12:50) 4.44 (12:40) 7.8 0 0 7.8 0
28-03-2019 23 (12:40) 14.9 (00:00) 18.9 4.72 (12:20) 3.33 (12:20) 0 0 0 0 0
27-03-2019 22.6 (12:50) 16.4 (00:00) 19.5 4.72 (11:50) 3.61 (11:50) 0 0 0 0 0
26-03-2019 23.2 (17:10) 14.6 (00:00) 18.9 3.89 (17:20) 2.5 (17:20) 0 0 0 0 0
25-03-2019 20.4 (16:10) 15.5 (00:00) 17.9 7.22 (08:20) 4.17 (11:10) 6.2 0 4.2 2 0
24-03-2019 22.1 (17:40) 16.8 (00:00) 19.4 7.5 (17:40) 5.28 (11:10) 0 0 0 0 0
23-03-2019 20.7 (17:40) 16.8 (00:00) 18.8 11.11 (10:30) 6.39 (11:50) 0 0 0 0 0
22-03-2019 19.6 (10:50) 16.7 (00:00) 18.2 10.28 (13:50) 7.78 (14:10) 0 0 0 0 0
21-03-2019 21.4 (11:00) 14.7 (00:00) 18 15.83 (16:50) 9.17 (13:30) 0 0 0 0 0
20-03-2019 21.4 (11:00) 16.7 (00:00) 19.1 11.11 (12:10) 7.78 (14:30) 0 0 0 0 0
19-03-2019 19.9 (10:30) 16.7 (00:00) 18.3 10.56 (11:10) 8.61 (11:10) 0.1 0.1 0 0 0

Gráficas

Temp. máximas Temp. mínimas Temp. medias Precipitaciones Rachas de viento máximas Velocidades máximas media en intervalos de 10 minutos

Datos horarios

Fecha y hora oficial Temperatura (ºC) Velocidad del viento (km/h) Dirección del viento Racha (km/h) Dirección de racha Precipitación (mm) Presión (hPa) Tendencia (hPa) Humedad (%)
2019-04-17 23:00:00 18.9 4 Norte 17 Norte 0 1017 2.7 79
2019-04-17 22:00:00 19 3 Noroeste 12 Noroeste 0 1016.1 2.3 82
2019-04-17 21:00:00 19.4 0 Calma 8 Noroeste 0 1015 1.3 81
2019-04-17 20:00:00 19.8 2 Noroeste 10 Nordeste 0 1014.3 0.7 77
2019-04-17 19:00:00 20.1 4 Noroeste 11 Noroeste 0 1013.8 -0.1 80
2019-04-17 18:00:00 20.1 5 Noroeste 10 Sudoeste 0 1013.7 0.2 80
2019-04-17 17:00:00 20.1 4 Sur 13 Sur 0 1013.6 -0.4 82
2019-04-17 16:00:00 19.1 7 Noroeste 16 Noroeste 0 1013.9 -0.4 82
2019-04-17 15:00:00 20.8 3 Sudeste 12 Este 0 1013.5 -0.7 80
2019-04-17 14:00:00 20 4 Nordeste 9 Nordeste 0 1014 0.7 88
2019-04-17 13:00:00 19.4 0 Calma 19 Nordeste 0 1014.3 1.6 91
2019-04-17 12:00:00 18.6 5 Norte 27 Nordeste 0 1014.2 2 94
2019-04-17 11:00:00 20.3 13 Oeste 22 Oeste 0 1013.3 1.3 87
2019-04-17 10:00:00 19.7 12 Oeste 23 Oeste 0 1012.7 1.1 86
2019-04-17 09:00:00 19 7 Sur 14 Sur 0 1012.2 0.7 65
2019-04-17 08:00:00 17.6 6 Sur 15 Sur 0 1012 0.1 64
2019-04-17 07:00:00 16.7 8 Sur 16 Sudeste 0 1011.6 -0.6 68
2019-04-17 06:00:00 16.4 8 Sur 15 Sudeste 0 1011.5 -1.4 68
2019-04-17 05:00:00 16.2 8 Sudeste 15 Sudeste 0 1011.9 -1.1 75
2019-04-17 04:00:00 16 8 Sur 17 Sur 0 1012.2 -1.2 77
2019-04-17 03:00:00 16.7 7 Sur 14 Sudeste 0 1012.9 -0.6 78
2019-04-17 02:00:00 18.1 2 Sur 9 Sur 0 1013 -0.4 81
2019-04-17 01:00:00 19.3 2 Sudeste 11 Sudeste 0 1013.4 0.2 85
2019-04-17 00:00:00 19 3 Sudeste 14 Sudeste 0 1013.5 1.1 87
2019-04-16 23:00:00 19 3 Sudeste 16 Noroeste 0 1013.4 1.3 87
2019-04-16 22:00:00 19.5 10 Noroeste 21 Noroeste 0 1013.2 1.6 84
2019-04-16 21:00:00 19.4 12 Noroeste 19 Noroeste 0 1012.4 1.4 89
2019-04-16 20:00:00 19.7 10 Noroeste 21 Oeste 0 1012.1 0.9 91
2019-04-16 19:00:00 20.3 12 Oeste 26 Noroeste 0 1011.6 -1 87
2019-04-16 18:00:00 22 8 Norte 20 Este 0 1011 -2.4 76
2019-04-16 17:00:00 22.9 7 Nordeste 16 Noroeste 0 1011.2 -2.8 78
2019-04-16 16:00:00 21 10 Noroeste 17 Noroeste 0 1012.6 -1.7 81
2019-04-16 15:00:00 22 4 Noroeste 8 Noroeste 0 1013.4 -0.9 76
2019-04-16 14:00:00 21.2 6 Noroeste 11 Noroeste 0 1014 -0.3 81
2019-04-16 13:00:00 21.6 3 Norte 11 Este 0 1014.3 -0.3 78
2019-04-16 12:00:00 22.9 8 Nordeste 12 Nordeste 0 1014.3 -0.6 74
2019-04-16 11:00:00 21.8 8 Nordeste 15 Este 0 1014.3 -0.8 76
2019-04-16 10:00:00 21.2 6 Nordeste 12 Sudeste 0 1014.6 0.2 68
2019-04-16 09:00:00 19 3 Sudeste 11 Sur 0 1014.9 0.8 73
2019-04-16 08:00:00 16.9 6 Sur 14 Sur 0 1015.1 0.6 82
2019-04-16 07:00:00 16.6 5 Sur 15 Sur 0 1014.4 -0.6 81
2019-04-16 06:00:00 17.3 6 Sur 14 Sudeste 0 1014.1 -1.5 80
2019-04-16 05:00:00 18.1 4 Sur 10 Sur 0 1014.5 -1.4 81
2019-04-16 04:00:00 17.7 5 Sur 12 Sudeste 0 1015 -1.7 82
2019-04-16 03:00:00 18.2 4 Sudeste 9 Sudeste 0 1015.6 -1.4 82
2019-04-16 02:00:00 19.2 3 Sur 8 Sur 0 1015.9 -1.1 78
2019-04-16 01:00:00 19.5 0 Calma 7 Sur 0 1016.7 -0.1 81
2019-04-16 00:00:00 19.3 3 Sur 12 Sur 0 1017 0.7 86
2019-04-15 23:00:00 19.7 0 Calma 8 Nordeste 0 1017 1.1 90
2019-04-15 22:00:00 20.4 4 Nordeste 10 Nordeste 0 1016.8 1 88
2019-04-15 21:00:00 20.5 5 Nordeste 9 Nordeste 0 1016.3 0.4 88
2019-04-15 20:00:00 20.6 6 Nordeste 12 Nordeste 0 1015.9 -0.3 88
2019-04-15 19:00:00 21 9 Nordeste 12 Nordeste 0 1015.8 -0.5 86
2019-04-15 18:00:00 21.7 6 Nordeste 13 Nordeste 0 1015.9 -0.1 84
2019-04-15 17:00:00 20.7 9 Norte 16 Norte 0 1016.2 -0.6 87
2019-04-15 16:00:00 22.6 12 Nordeste 15 Nordeste 0 1016.3 -0.5 73
2019-04-15 15:00:00 23.9 9 Nordeste 14 Nordeste 0 1016 -1.5 68
2019-04-15 14:00:00 22.8 9 Nordeste 14 Nordeste 0 1016.8 -0.8 70
2019-04-15 13:00:00 23.4 10 Nordeste 17 Nordeste 0 1016.8 -0.1 68
2019-04-15 12:00:00 22.4 12 Nordeste 22 Nordeste 0 1017.5 0.6 72
2019-04-15 11:00:00 21.2 17 Nordeste 22 Nordeste 0 1017.6 0.5 75
2019-04-15 10:00:00 22.2 3 Nordeste 11 Sur 0 1016.9 -0.3 60
2019-04-15 09:00:00 19.3 6 Sur 19 Sur 0 1016.9 0.5 67
2019-04-15 08:00:00 17.2 8 Sur 15 Sudeste 0 1017.1 1.1 74
2019-04-15 07:00:00 17.3 4 Sur 15 Sur 0 1017.2 1.1 74
2019-04-15 06:00:00 16.6 8 Sur 13 Sur 0 1016.4 -0.3 75
2019-04-15 05:00:00 16.4 5 Sur 15 Sur 0 1016 -1 72
2019-04-15 04:00:00 16.8 5 Sur 13 Sur 0 1016.1 -1.3 72
2019-04-15 03:00:00 17.4 5 Sur 12 Sur 0 1016.7 -0.2 75
2019-04-15 02:00:00 17.8 0 Calma 7 Sudeste 0 1017 0.7 82
2019-04-15 01:00:00 18.4 3 Sur 8 Sudeste 0 1017.4 2.5 83
2019-04-15 00:00:00 19.2 3 Nordeste 7 Norte 0 1016.9 1.8 83
2019-04-14 23:00:00 19.2 3 Norte 17 Norte 0 1016.3 1.8 83
2019-04-14 22:00:00 19.1 7 Norte 11 Norte 0 1014.9 1 83
2019-04-14 21:00:00 19.7 0 Calma 8 Noroeste 0 1015.1 1 81
2019-04-14 20:00:00 20 4 Noroeste 11 Noroeste 0 1014.5 0.7 79
2019-04-14 19:00:00 21.5 4 Norte 11 Noroeste 0 1013.9 -0.3 74
2019-04-14 18:00:00 21.3 5 Noroeste 11 Noroeste 0 1014.1 -0.6 75
2019-04-14 17:00:00 21.2 5 Noroeste 14 Nordeste 0 1013.8 -1.3 74
2019-04-14 16:00:00 20.5 6 Norte 13 Noroeste 0 1014.2 -1.1 76
2019-04-14 15:00:00 20.8 6 Noroeste 12 Noroeste 0 1014.7 -0.6 76
2019-04-14 14:00:00 20.4 6 Noroeste 12 Noroeste 0 1015.1 -0.4 77
2019-04-14 13:00:00 19.8 6 Noroeste 18 Oeste 0 1015.3 0.1 78
2019-04-14 12:00:00 19.9 9 Noroeste 15 Noroeste 0 1015.3 0.2 81
2019-04-14 11:00:00 19 9 Oeste 16 Oeste 0 1015.5 0.6 80
2019-04-14 10:00:00 18.8 6 Oeste 13 Oeste 0 1015.2 1 79
2019-04-14 09:00:00 18.6 3 Sur 12 Sur 0 1015.1 0.6 79
2019-04-14 08:00:00 16.4 5 Sur 12 Sur 0 1014.9 -0.2 85
2019-04-14 07:00:00 16.3 4 Sur 9 Sur 0 1014.2 -1.5 84
2019-04-14 06:00:00 16.3 5 Sur 15 Sudeste 0 1014.5 -2 84
2019-04-14 05:00:00 16.5 6 Sur 12 Sur 0 1015.1 -2.1 82
2019-04-14 04:00:00 17 6 Sur 14 Sur 0 1015.7 -1.7 80
2019-04-14 03:00:00 16.5 7 Sur 14 Sur 0 1016.5 -1.4 82
2019-04-14 02:00:00 16.7 3 Sur 8 Sur 0 1017.2 -1 88
2019-04-14 01:00:00 17.9 0 Calma 9 Nordeste 0 1017.4 0 87
2019-04-14 00:00:00 18.3 9 Nordeste 20 Nordeste 0 1017.9 1.2 87
2019-04-13 23:00:00 18.6 11 Este 24 Nordeste 0 1018.2 1.5 88
2019-04-13 22:00:00 18.8 15 Nordeste 23 Nordeste 0 1017.4 0.7 89
2019-04-13 21:00:00 18.9 17 Nordeste 22 Nordeste 0 1016.7 0.1 86
2019-04-13 20:00:00 19.6 17 Nordeste 21 Nordeste 0 1016.7 -0.2 82
2019-04-13 19:00:00 19.8 15 Nordeste 24 Nordeste 0 1016.7 -0.3 82
2019-04-13 18:00:00 19.7 18 Nordeste 28 Nordeste 0 1016.6 -1.1 83
2019-04-13 17:00:00 20.1 19 Nordeste 27 Nordeste 0 1016.9 -1.1 79
2019-04-13 16:00:00 20.9 18 Nordeste 24 Nordeste 0 1017 -1.2 74
2019-04-13 15:00:00 21.6 15 Nordeste 27 Nordeste 0 1017.7 -1.4 72
2019-04-13 14:00:00 21.3 19 Nordeste 30 Nordeste 0 1018 -0.8 73
2019-04-13 13:00:00 20.9 23 Nordeste 29 Nordeste 0 1018.2 -0.8 72
2019-04-13 12:00:00 20.1 19 Nordeste 27 Nordeste 0 1019.1 0.6 73
2019-04-13 11:00:00 19.7 22 Nordeste 30 Este 0 1018.8 0.4 76
2019-04-13 10:00:00 19.5 16 Nordeste 23 Nordeste 0 1019 0.8 73
2019-04-13 09:00:00 18.5 4 Sudeste 14 Sur 0 1018.5 0.4 74
2019-04-13 08:00:00 17.1 10 Este 23 Este 0 1018.4 0 85
2019-04-13 07:00:00 16.7 9 Sudeste 17 Sudeste 0 1018.2 -0.3 75
2019-04-13 06:00:00 17 6 Sudeste 24 Este 0 1018.1 -1.2 79
2019-04-13 05:00:00 17.5 5 Sudeste 16 Nordeste 0 1018.4 -1.5 73
2019-04-13 04:00:00 17.4 6 Sudeste 12 Sudeste 0 1018.5 -1.7 75
2019-04-13 03:00:00 16.9 4 Sudeste 17 Nordeste 0 1019.3 -1.1 76
2019-04-13 02:00:00 16.8 3 Sudeste 11 Sudeste 0 1019.9 -0.2 75
2019-04-13 01:00:00 16.6 4 Sudeste 15 Sur 0 1020.2 0.8 78
2019-04-13 00:00:00 17.1 4 Sur 12 Sudeste 0 1020.4 1.5 75
2019-04-12 23:00:00 17.3 3 Sur 13 Este 0 1020.1 1.9 74
2019-04-12 22:00:00 18.1 13 Este 21 Nordeste 0 1019.4 1.3 75
2019-04-12 21:00:00 18.6 17 Nordeste 22 Nordeste 0 1018.9 1 74
2019-04-12 20:00:00 19.9 15 Nordeste 23 Nordeste 0 1018.2 0.6 68
2019-04-12 19:00:00 21.1 18 Nordeste 23 Nordeste 0 1018.1 0.2 65
2019-04-12 18:00:00 21.7 19 Nordeste 25 Este 0 1017.9 0.1 64
2019-04-12 17:00:00 22.2 20 Nordeste 29 Nordeste 0 1017.6 -1.1 62
2019-04-12 16:00:00 21.6 22 Nordeste 32 Nordeste 0 1017.9 -1.6 64
2019-04-12 15:00:00 21.7 23 Nordeste 31 Nordeste 0 1017.8 -1.4 65
2019-04-12 14:00:00 21.5 18 Nordeste 28 Nordeste 0 1018.7 -0.6 64
2019-04-12 13:00:00 21.4 23 Nordeste 29 Nordeste 0 1019.5 0.2 66
2019-04-12 12:00:00 20.5 22 Nordeste 28 Nordeste 0 1019.2 -0.5 68
2019-04-12 11:00:00 20 18 Nordeste 26 Este 0 1019.3 -0.1 68
2019-04-12 10:00:00 19.7 12 Nordeste 18 Nordeste 0 1019.3 0.2 68
2019-04-12 09:00:00 17.3 6 Sur 13 Sur 0 1019.7 0.6 73
2019-04-12 08:00:00 16.9 4 Sudeste 13 Nordeste 0 1019.4 -0.2 80
2019-04-12 07:00:00 16.7 5 Sur 15 Sudeste 0 1019.1 -0.2 68
2019-04-12 06:00:00 16.2 7 Sur 16 Sudeste 0 1019.1 -0.6 69
2019-04-12 05:00:00 16.2 7 Sur 14 Sudeste 0 1019.6 -0.3 74
2019-04-12 04:00:00 16.3 5 Sudeste 14 Sudeste 0 1019.3 -1.9 73
2019-04-12 03:00:00 16.7 6 Sur 14 Sudeste 0 1019.7 -1.7 72
2019-04-12 02:00:00 17.3 5 Sudeste 17 Nordeste 0 1019.9 -0.9 76
2019-04-12 01:00:00 18.3 13 Nordeste 22 Nordeste 0 1021.2 0.8 77
2019-04-12 00:00:00 18.3 14 Nordeste 24 Nordeste 0 1021.4 1.3 78
2019-04-11 23:00:00 18.6 14 Nordeste 22 Nordeste 0 1020.8 1.7 73
2019-04-11 22:00:00 18.5 5 Este 16 Nordeste 0 1020.4 2 71
2019-04-11 21:00:00 18.9 12 Nordeste 21 Nordeste 0 1020.1 1.7 70
2019-04-11 20:00:00 19.4 17 Nordeste 22 Nordeste 0 1019.1 1.1 69
2019-04-11 19:00:00 21 17 Nordeste 27 Nordeste 0 1018.4 -0.3 64
2019-04-11 18:00:00 21.4 21 Nordeste 27 Nordeste 0 1018.4 -0.7 64
2019-04-11 17:00:00 21.8 16 Nordeste 26 Nordeste 0 1018 -1.4 60
2019-04-11 16:00:00 21.5 21 Nordeste 28 Nordeste 0 1018.7 -1.5 61
2019-04-11 15:00:00 21.9 23 Nordeste 28 Nordeste 0 1019.1 -1.5 62
2019-04-11 14:00:00 21.8 15 Nordeste 22 Nordeste 0 1019.4 -1.1 62
2019-04-11 13:00:00 20.7 17 Nordeste 27 Nordeste 0 1020.2 -0.4 61
2019-04-11 12:00:00 20.4 21 Nordeste 28 Nordeste 0 1020.6 0.2 64
2019-04-11 11:00:00 19.9 17 Nordeste 23 Nordeste 0 1020.5 0.2 64
2019-04-11 10:00:00 19.1 13 Este 21 Nordeste 0 1020.6 1.3 66
2019-04-11 09:00:00 17.4 8 Sudeste 15 Sur 0 1020.4 1 67
2019-04-11 08:00:00 15.9 8 Sudeste 18 Sudeste 0 1020.3 0.9 72
2019-04-11 07:00:00 17.3 13 Este 29 Nordeste 0 1019.3 -0.4 73
2019-04-11 06:00:00 16 6 Sur 17 Sudeste 0 1019.4 -0.6 71
2019-04-11 05:00:00 15.7 9 Sudeste 17 Sudeste 0 1019.4 -1 72
2019-04-11 04:00:00 16.2 5 Sur 13 Este 0 1019.7 -1.2 71
2019-04-11 03:00:00 17.2 7 Sudeste 19 Sur 0 1020 -0.7 67
2019-04-11 02:00:00 16.8 6 Sudeste 16 Sur 0 1020.4 -0.3 70
2019-04-11 01:00:00 17.3 7 Sudeste 18 Sudeste 0 1020.9 0.6 70
2019-04-11 00:00:00 16.8 4 Sur 13 Sudeste 0 1020.7 1 69
2019-04-10 23:00:00 17.3 6 Sudeste 16 Sudeste 0 1020.7 1.4 70
2019-04-10 22:00:00 18.1 10 Este 26 Nordeste 0 1020.3 1.5 75
2019-04-10 21:00:00 18.5 17 Nordeste 26 Nordeste 0 1019.7 1.1 75
2019-04-10 20:00:00 19.2 19 Nordeste 26 Nordeste 0 1019.3 0.9 73
2019-04-10 19:00:00 20.6 21 Nordeste 25 Nordeste 0 1018.8 0.4 70
2019-04-10 18:00:00 21.2 13 Nordeste 21 Nordeste 0 1018.6 -0.4 65
2019-04-10 17:00:00 21.5 13 Nordeste 19 Nordeste 0 1018.4 -0.7 63
2019-04-10 16:00:00 21.1 14 Nordeste 24 Nordeste 0 1018.4 -1.5 64
2019-04-10 15:00:00 20.7 18 Nordeste 23 Nordeste 0 1019 -1 60
2019-04-10 14:00:00 21.3 15 Nordeste 21 Nordeste 0 1019.1 -0.7 59
2019-04-10 13:00:00 20.1 14 Nordeste 28 Nordeste 0 1019.9 0.2 65
2019-04-10 12:00:00 19.6 23 Nordeste 30 Este 0 1020 0.5 67
2019-04-10 11:00:00 19.5 23 Nordeste 28 Nordeste 0 1019.8 0.6 69
2019-04-10 10:00:00 17.9 17 Nordeste 25 Este 0 1019.7 0.7 78
2019-04-10 09:00:00 17.5 8 Este 13 Este 0 1019.5 0.8 77
2019-04-10 08:00:00 15.7 4 Sur 17 Sur 0 1019.2 0.3 74
2019-04-10 07:00:00 15.6 6 Sur 16 Sur 0 1019 0.3 77
2019-04-10 06:00:00 16.5 4 Sur 14 Sudeste 0 1018.7 -0.4 73
2019-04-10 05:00:00 15.6 5 Sur 14 Sur 0 1018.9 -0.5 77
2019-04-10 04:00:00 15.8 7 Sur 15 Sur 0 1018.7 -0.8 77
2019-04-10 03:00:00 16 6 Sur 15 Sudeste 0 1019.1 -0.7 77
2019-04-10 02:00:00 16.1 7 Sur 17 Sudeste 0 1019.4 -0.5 78
2019-04-10 01:00:00 15.8 7 Sur 14 Sudeste 0 1019.5 0.1 81
2019-04-10 00:00:00 17.1 5 Este 14 Este 0 1019.8 0.9 80
2019-04-09 23:00:00 17.6 4 Este 19 Nordeste 0 1019.9 1.8 82
2019-04-09 22:00:00 17.6 3 Sur 22 Nordeste 0 1019.4 2 82
2019-04-09 21:00:00 18.4 19 Nordeste 28 Nordeste 0 1018.9 1.2 82
2019-04-09 20:00:00 19.1 21 Nordeste 30 Nordeste 0 1018.1 0.2 79
2019-04-09 19:00:00 19.9 26 Nordeste 32 Nordeste 0 1017.4 -0.8 78
2019-04-09 18:00:00 19.4 24 Nordeste 31 Nordeste 0 1017.7 -0.9 83
2019-04-09 17:00:00 19.4 23 Nordeste 31 Nordeste 0 1017.9 -0.8 84
2019-04-09 16:00:00 19.6 22 Nordeste 30 Nordeste 0 1018.2 -1.2 85
2019-04-09 15:00:00 19.9 21 Nordeste 30 Nordeste 0 1018.6 -0.4 78
2019-04-09 14:00:00 20.7 5 Este 20 Este 0 1018.7 -0.4 80
2019-04-09 13:00:00 19.7 13 Nordeste 31 Nordeste 0 1019.4 0.3 87
2019-04-09 12:00:00 21.8 8 Nordeste 14 Nordeste 0 1019 -0.5 70
2019-04-09 11:00:00 21.4 8 Nordeste 14 Este 0 1019.1 -0.2 68
2019-04-09 10:00:00 20.6 4 Nordeste 9 Nordeste 0 1019.1 0.4 69
2019-04-09 09:00:00 18.1 4 Sur 11 Sudeste 0 1019.5 0.7 69
2019-04-09 08:00:00 16.9 3 Sur 14 Sur 0 1019.3 0.8 74
2019-04-09 07:00:00 17 5 Sur 14 Sur 0 1018.7 -0.4 74
2019-04-09 06:00:00 16.1 3 Sudeste 11 Sur 0 1018.8 -0.8 76
2019-04-09 05:00:00 16.2 6 Sur 17 Sudeste 0 1018.5 -1.1 71
2019-04-09 04:00:00 15.9 4 Sur 13 Sudeste 0 1019.1 -0.5 73
2019-04-09 03:00:00 15.4 7 Sur 15 Sur 0 1019.6 -0.7 74
2019-04-09 02:00:00 15.8 8 Sur 15 Sur 0 1019.6 -0.5 71
2019-04-09 01:00:00 16.2 8 Sur 17 Sur 0 1019.6 -0.4 74
2019-04-09 00:00:00 17.1 5 Sur 17 Sur 0 1020.3 1.1 69
2019-04-08 23:00:00 18.2 4 Sudeste 14 Este 0 1020.1 1.1 67
2019-04-08 22:00:00 19 8 Nordeste 13 Nordeste 0 1020 1.4 71
2019-04-08 21:00:00 19.1 7 Nordeste 9 Nordeste 0 1019.2 0.8 70
2019-04-08 20:00:00 19.3 4 Nordeste 10 Norte 0 1019 0.7 68
2019-04-08 19:00:00 19.4 4 Norte 12 Norte 0 1018.6 -0.1 67
2019-04-08 18:00:00 20.4 6 Nordeste 14 Nordeste 0 1018.4 -0.3 67
2019-04-08 17:00:00 21.2 5 Nordeste 9 Nordeste 0 1018.3 -1.4 72
2019-04-08 16:00:00 20.7 4 Nordeste 11 Nordeste 0 1018.7 -1.8 69
2019-04-08 15:00:00 22.1 7 Nordeste 10 Nordeste 0 1018.7 -1.9 67
2019-04-08 14:00:00 20.9 4 Nordeste 7 Este 0 1019.7 -1 69
2019-04-08 13:00:00 19.8 4 Nordeste 14 Nordeste 0 1020.5 0.1 75
2019-04-08 12:00:00 19.2 10 Este 19 Nordeste 0 1020.6 0.5 80
2019-04-08 11:00:00 18.9 13 Nordeste 21 Nordeste 0 1020.7 1.1 83
2019-04-08 10:00:00 18.6 0 Calma 12 Nordeste 0 1020.4 1.1 78
2019-04-08 09:00:00 17.3 0 Calma 8 Sur 0 1020.1 0.5 82
2019-04-08 08:00:00 16.6 4 Sur 16 Sur 0 1019.6 0.1 83
2019-04-08 07:00:00 16.3 5 Sudeste 17 Sudeste 0 1019.3 -0.4 93
2019-04-08 06:00:00 16.1 3 Sur 14 Sudoeste 0.3 1019.6 -0.4 96
2019-04-08 05:00:00 16.7 3 Sudoeste 15 Norte 2.4 1019.5 -0.8 95
2019-04-08 04:00:00 17.7 4 Norte 14 Norte 0 1019.7 -0.8 88
2019-04-08 03:00:00 17.6 0 Calma 8 Sur 0 1020 -0.7 74
2019-04-08 02:00:00 17.6 0 Calma 8 Sur 0 1020.3 -0.2 76
2019-04-08 01:00:00 17.4 0 Calma 11 Sur 0 1020.5 0.6 77
2019-04-08 00:00:00 17.7 6 Sudeste 13 Sur 0 1020.7 1.1 75
2019-04-07 23:00:00 18.7 6 Nordeste 9 Nordeste 0 1020.5 1.1 79
2019-04-07 22:00:00 19.4 6 Nordeste 10 Nordeste 0 1019.9 1.4 76
2019-04-07 21:00:00 19.5 6 Nordeste 9 Nordeste 0 1019.6 0.8 74
2019-04-07 20:00:00 20.4 6 Nordeste 12 Norte 0 1019.4 0.5 71
2019-04-07 19:00:00 21.7 7 Nordeste 12 Nordeste 0 1018.5 -0.8 66
2019-04-07 18:00:00 21.7 8 Nordeste 10 Norte 0 1018.8 -1.1 67
2019-04-07 17:00:00 20.8 6 Nordeste 12 Norte 0 1018.9 -1.9 68
2019-04-07 16:00:00 20.7 5 Norte 10 Norte 0 1019.3 -1.7 68
2019-04-07 15:00:00 20.9 6 Nordeste 10 Nordeste 0 1019.9 -1.3 68
2019-04-07 14:00:00 19.9 4 Norte 13 Norte 0 1020.8 -0.3 71
2019-04-07 13:00:00 19.9 7 Norte 10 Norte 0 1021 0.3 69
2019-04-07 12:00:00 19.1 5 Norte 10 Norte 0 1021.2 0.9 72
2019-04-07 11:00:00 19 5 Norte 9 Norte 0 1021.1 0.9 70
2019-04-07 10:00:00 19.3 3 Nordeste 6 Nordeste 0 1020.7 1.1 69
2019-04-07 09:00:00 16.9 3 Sur 11 Sur 0 1020.3 1 74
2019-04-07 08:00:00 14.4 8 Sur 14 Sur 0 1020.2 0.9 79
2019-04-07 07:00:00 14.7 5 Sur 12 Sur 0 1019.6 0.2 81
2019-04-07 06:00:00 14.8 6 Sur 17 Sur 0 1019.3 -0.7 78
2019-04-07 05:00:00 15.1 6 Sur 12 Sur 0 1019.3 -1.1 79
2019-04-07 04:00:00 15.1 4 Sur 16 Sur 0 1019.4 -1.5 79
2019-04-07 03:00:00 15.7 6 Sur 14 Sudeste 0 1020 -1.1 80
2019-04-07 02:00:00 16.4 4 Sur 12 Sudeste 0 1020.4 -0.7 78
2019-04-07 01:00:00 16.2 4 Sur 14 Sudeste 0 1020.9 0.2 78
2019-04-07 00:00:00 16 6 Sur 17 Sur 0 1021.1 1.2 78
2019-04-06 23:00:00 16.5 4 Sudeste 11 Sur 0 1021.1 1.5 78
2019-04-06 22:00:00 17.9 0 Calma 12 Nordeste 0 1020.7 1.3 78
2019-04-06 21:00:00 18.3 8 Nordeste 13 Nordeste 0 1019.9 0.7 78
2019-04-06 20:00:00 20 7 Nordeste 12 Nordeste 0 1019.6 0.1 67
2019-04-06 19:00:00 19.9 9 Nordeste 13 Nordeste 0 1019.4 -0.4 66
2019-04-06 18:00:00 20.4 6 Nordeste 13 Nordeste 0 1019.2 -1.1 65
2019-04-06 17:00:00 20.2 9 Nordeste 32 Nordeste 0 1019.5 -1.1 67
2019-04-06 16:00:00 19.3 9 Norte 15 Norte 0 1019.8 -0.9 68
2019-04-06 15:00:00 19.2 9 Norte 14 Norte 0 1020.3 -0.5 69
2019-04-06 14:00:00 19.2 8 Norte 14 Norte 0 1020.6 -0.2 69
2019-04-06 13:00:00 19.6 6 Nordeste 13 Nordeste 0 1020.7 0 68
2019-04-06 12:00:00 19.6 0 Calma 9 Este 0 1020.8 0.6 69
2019-04-06 11:00:00 17.8 3 Sur 14 Sudeste 0 1020.8 1.3 80
2019-04-06 10:00:00 16.4 3 Sudeste 18 Nordeste 0.1 1020.7 2 87
2019-04-06 09:00:00 16.9 5 Sur 18 Sur 0 1020.2 1.9 74
2019-04-06 08:00:00 16.2 3 Sur 10 Sur 0 1019.5 1.2 74
2019-04-06 07:00:00 17.1 6 Sudoeste 15 Sudoeste 0 1018.7 0.1 72
2019-04-06 06:00:00 16.4 7 Sur 14 Sur 0 1018.3 -0.5 72
2019-04-06 05:00:00 16.6 9 Sur 19 Sur 0 1018.3 -1.2 75
2019-04-06 04:00:00 16.8 5 Sur 24 Norte 0.1 1018.6 -1.3 86
2019-04-06 03:00:00 17.5 4 Sudoeste 21 Sur 0 1018.8 -1.2 66
2019-04-06 02:00:00 17.1 8 Sur 27 Norte 0 1019.5 -0.6 79
2019-04-06 01:00:00 18 7 Noroeste 18 Noroeste 0 1019.9 0.8 74
2019-04-06 00:00:00 18.2 7 Oeste 17 Noroeste 0 1020 1.6 74
2019-04-05 23:00:00 18.2 9 Noroeste 20 Noroeste 0 1020.1 2.1 74
2019-04-05 22:00:00 18.2 9 Noroeste 24 Noroeste 0 1019.1 1.5 72
2019-04-05 21:00:00 18.7 7 Oeste 17 Noroeste 0 1018.4 1 69
2019-04-05 20:00:00 18.7 9 Oeste 19 Oeste 0 1018 0.7 69
2019-04-05 19:00:00 18.8 11 Noroeste 21 Noroeste 0 1017.6 0.2 75
2019-04-05 18:00:00 19 9 Noroeste 17 Noroeste 0 1017.4 -0.3 74
2019-04-05 17:00:00 19.5 9 Noroeste 22 Noroeste 0 1017.3 -0.8 72
2019-04-05 16:00:00 19.5 6 Noroeste 26 Noroeste 0 1017.4 -0.8 77
2019-04-05 15:00:00 20.6 8 Noroeste 16 Noroeste 0 1017.7 -1 66
2019-04-05 14:00:00 19.9 10 Noroeste 15 Noroeste 0 1018.1 0.1 68
2019-04-05 13:00:00 19.5 8 Noroeste 18 Noroeste 0 1018.2 1 68
2019-04-05 12:00:00 19.1 8 Noroeste 21 Norte 0 1018.7 1.7 75
2019-04-05 11:00:00 18.6 10 Noroeste 18 Noroeste 0 1018 1.4 63
2019-04-05 10:00:00 19.3 5 Oeste 15 Oeste 0 1017.2 0.8 55
2019-04-05 09:00:00 17.4 6 Sur 14 Sur 0 1017 1 67
2019-04-05 08:00:00 16.6 6 Sur 14 Sur 0 1016.6 0.8 72
2019-04-05 07:00:00 16.6 5 Sur 13 Sudoeste 0 1016.4 0.7 86
2019-04-05 06:00:00 16.4 3 Sur 10 Sur 0 1016 -0.2 67
2019-04-05 05:00:00 15.8 7 Sudoeste 17 Sur 0 1015.8 -0.7 67
2019-04-05 04:00:00 16.3 5 Sur 13 Sur 0 1015.7 -0.6 73
2019-04-05 03:00:00 16.8 8 Sur 15 Sur 0 1016.2 0.4 76
2019-04-05 02:00:00 17.2 3 Sur 7 Sur 0 1016.5 0.9 83
2019-04-05 01:00:00 17.3 3 Sudoeste 10 Noroeste 0 1016.3 1.2 83
2019-04-05 00:00:00 17.6 4 Norte 12 Sudoeste 0 1015.8 1.6 87
2019-04-04 23:00:00 17.8 3 Noroeste 9 Noroeste 0 1015.6 1.9 83
2019-04-04 22:00:00 17.7 2 Norte 19 Norte 0 1015.1 1.9 83
2019-04-04 21:00:00 17.6 14 Norte 25 Norte 0 1014.2 0.9 85
2019-04-04 20:00:00 18 12 Norte 21 Norte 0 1013.7 0.6 84
2019-04-04 19:00:00 19 9 Norte 20 Norte 0 1013.2 0.1 70
2019-04-04 18:00:00 19.8 12 Norte 19 Norte 0 1013.3 -0.1 73
2019-04-04 17:00:00 19.8 8 Norte 14 Norte 0 1013.1 -0.5 69
2019-04-04 16:00:00 19.8 6 Norte 18 Norte 0 1013.1 -1.1 69
2019-04-04 15:00:00 19.9 5 Noroeste 14 Noroeste 0 1013.4 -0.6 70
2019-04-04 14:00:00 20.8 6 Nordeste 27 Este 11.8 1013.6 -0.4 69
2019-04-04 13:00:00 17.9 7 Este 23 Este 0 1014.2 1.1 81
2019-04-04 12:00:00 17.8 8 Sudoeste 12 Sudoeste 0 1014 1.7 77
2019-04-04 11:00:00 17.7 2 Sur 18 Este 0 1014 2.5 86
2019-04-04 10:00:00 16.8 4 Oeste 10 Oeste 0 1013.1 1.8 83
2019-04-04 09:00:00 16.1 0 Calma 11 Sur 0 1012.3 1.8 85
2019-04-04 08:00:00 15.1 4 Sur 12 Sur 0 1011.5 0.8 88
2019-04-04 07:00:00 15.1 8 Sudoeste 23 Oeste 0.2 1011.3 0.7 93
2019-04-04 06:00:00 15.2 3 Sur 12 Sur 0 1010.5 -0.5 85
2019-04-04 05:00:00 15.9 2 Sudoeste 10 Sudeste 0 1010.7 -0.9 91
2019-04-04 04:00:00 15.6 3 Sur 16 Sur 0 1010.6 -1.2 79
2019-04-04 03:00:00 15.9 7 Sur 16 Sur 0.2 1011 -1.1 86
2019-04-04 02:00:00 15.9 3 Sudoeste 12 Sur 0 1011.6 -0.5 85
2019-04-04 01:00:00 15.7 3 Sur 12 Sudeste 0 1011.8 0.4 87
2019-04-04 00:00:00 16.4 4 Sur 16 Sudoeste 0.1 1012.1 1.4 89
2019-04-03 23:00:00 17.2 3 Sur 25 Oeste 2 1012.1 1.6 88
2019-04-03 22:00:00 18.1 3 Sudoeste 17 Sudoeste 0 1011.4 1.3 82
2019-04-03 21:00:00 18.2 9 Oeste 21 Oeste 0 1010.7 1.1 82
2019-04-03 20:00:00 18.4 13 Noroeste 24 Noroeste 0.1 1010.5 0.8 83
2019-04-03 19:00:00 19.5 14 Oeste 28 Noroeste 0 1010.1 0 75
2019-04-03 18:00:00 19.9 14 Oeste 25 Noroeste 0 1009.6 -0.9 66
2019-04-03 17:00:00 20.2 13 Oeste 25 Sudoeste 0 1009.7 -1.5 68
2019-04-03 16:00:00 20.4 11 Oeste 24 Sudoeste 0 1010.1 -1.5 66
2019-04-03 15:00:00 19.8 12 Oeste 22 Noroeste 0 1010.5 -1.8 68
2019-04-03 14:00:00 18.8 8 Oeste 19 Sudoeste 0 1011.2 -0.7 68
2019-04-03 13:00:00 19.1 5 Noroeste 13 Noroeste 0 1011.6 -0.1 64
2019-04-03 12:00:00 18.7 4 Sudoeste 14 Oeste 0 1012.3 1.3 68
2019-04-03 11:00:00 17.8 6 Sudoeste 15 Sudoeste 0 1011.9 1.4 71
2019-04-03 10:00:00 16.8 3 Sur 17 Sudoeste 0 1011.7 1.6 88
2019-04-03 09:00:00 16.3 3 Sudoeste 12 Sudoeste 0.2 1011 1.3 90
2019-04-03 08:00:00 15.5 6 Sur 14 Sur 0 1010.5 0.7 79
2019-04-03 07:00:00 15.5 5 Sur 11 Sur 0 1010.1 0.1 84
2019-04-03 06:00:00 15.5 2 Sur 8 Sudoeste 0 1009.7 -0.8 87
2019-04-03 05:00:00 16 3 Sur 7 Sur 0 1009.8 -1.2 87
2019-04-03 04:00:00 16.1 2 Sur 13 Sur 0 1010 -1.4 88
2019-04-03 03:00:00 15.6 5 Sur 14 Sur 0 1010.5 -1.2 93
2019-04-03 02:00:00 15.9 4 Sur 13 Sur 0 1011 -0.4 93
2019-04-03 01:00:00 16.3 3 Sur 11 Este 0 1011.4 0.9 93
2019-04-03 00:00:00 16.5 4 Sur 13 Noroeste 0 1011.7 1.8 95
2019-04-02 23:00:00 16.9 5 Noroeste 12 Noroeste 0 1011.4 1.8 94
2019-04-02 22:00:00 17.2 5 Oeste 10 Noroeste 0 1010.5 1.1 92
2019-04-02 21:00:00 16.8 2 Sur 10 Noroeste 0.1 1009.9 0.6 96
2019-04-02 20:00:00 16.9 6 Oeste 15 Oeste 0 1009.6 0.4 96
2019-04-02 19:00:00 17.3 7 Oeste 16 Norte 0 1009.4 -0.2 93
2019-04-02 18:00:00 17.6 5 Oeste 14 Oeste 0 1009.3 -0.7 90
2019-04-02 17:00:00 18.2 4 Noroeste 12 Noroeste 0 1009.2 -1.1 90
2019-04-02 16:00:00 18 4 Noroeste 10 Noroeste 0 1009.6 -1.1 90
2019-04-02 15:00:00 17.8 4 Noroeste 12 Noroeste 0 1010 -0.9 89
2019-04-02 14:00:00 18 3 Noroeste 10 Noroeste 0 1010.3 -0.6 86
2019-04-02 13:00:00 17.6 4 Noroeste 10 Noroeste 0 1010.7 0.3 87
2019-04-02 12:00:00 17.7 2 Norte 12 Noroeste 0.4 1010.9 0.5 90
2019-04-02 11:00:00 16.7 3 Oeste 8 Noroeste 0 1010.9 0.9 93
2019-04-02 10:00:00 16.5 2 Nordeste 8 Nordeste 0.1 1010.4 0.7 92
2019-04-02 09:00:00 15.6 2 Sur 8 Sur 0.1 1010.4 0.3 95
2019-04-02 08:00:00 15.6 3 Sur 11 Sur 0 1010 -0.2 92
2019-04-02 07:00:00 15.8 3 Oeste 8 Noroeste 0 1009.7 -0.7 91
2019-04-02 06:00:00 15.7 0 Calma 6 Noroeste 0 1010.1 -0.6 92
2019-04-02 05:00:00 15.5 0 Calma 17 Norte 0 1010.2 -1.8 92
2019-04-02 04:00:00 15.8 10 Norte 17 Norte 0 1010.4 -2.7 89
2019-04-02 03:00:00 15.4 3 Sudeste 10 Este 0 1010.7 -2.4 89
2019-04-02 02:00:00 14.7 3 Sudeste 18 Sudoeste 0 1012 -0.7 96
2019-04-02 01:00:00 14.5 4 Sudoeste 19 Nordeste 0.7 1013.1 1 99
2019-04-02 00:00:00 14.7 0 Calma 19 Nordeste 4.2 1013.1 1.5 99
2019-04-01 23:00:00 15.9 2 Nordeste 6 Este 1.5 1012.7 2.2 98
2019-04-01 22:00:00 16 0 Calma 15 Oeste 0.3 1012.1 1.4 96
2019-04-01 21:00:00 16.6 12 Noroeste 23 Sudoeste 0 1011.6 0.8 93
2019-04-01 20:00:00 18.6 0 Calma 10 Norte 0 1010.5 0.1 75
2019-04-01 19:00:00 18.1 3 Sur 15 Sur 0.1 1010.7 -0.1 82
2019-04-01 18:00:00 18 8 Sur 18 Sur 0 1010.8 -0.3 87
2019-04-01 17:00:00 20.1 8 Nordeste 14 Este 0 1010.4 -1.9 76
2019-04-01 16:00:00 20.7 8 Nordeste 16 Nordeste 0 1010.8 -1.8 73
2019-04-01 15:00:00 22.1 10 Nordeste 16 Nordeste 0 1011.1 -2.1 66
2019-04-01 14:00:00 21.6 9 Nordeste 14 Nordeste 0 1012.3 -1.4 71
2019-04-01 13:00:00 22.1 10 Nordeste 13 Nordeste 0 1012.6 -1.2 69
2019-04-01 12:00:00 20.9 8 Nordeste 12 Nordeste 0 1013.2 -0.5 72
2019-04-01 11:00:00 20 5 Nordeste 9 Este 0 1013.7 0.1 74
2019-04-01 10:00:00 18.6 0 Calma 7 Sur 0 1013.8 0.4 77
2019-04-01 09:00:00 16.6 5 Sur 13 Sur 0 1013.7 0.5 77
2019-04-01 08:00:00 15.5 6 Sur 11 Sur 0 1013.6 0.2 79
2019-04-01 07:00:00 15.2 4 Sur 12 Sudeste 0 1013.4 0 81
2019-04-01 06:00:00 15 6 Sur 15 Sudeste 0 1013.2 -0.7 83
2019-04-01 05:00:00 15.2 7 Sur 13 Sur 0 1013.4 -1.2 83
2019-04-01 04:00:00 15.6 5 Sur 11 Sur 0 1013.4 -1.5 84
2019-04-01 03:00:00 16.1 4 Sur 8 Sur 0 1013.9 -1.2 87
2019-04-01 02:00:00 17.2 4 Sur 7 Sur 0 1014.6 -0.4 87
2019-04-01 01:00:00 18.5 0 Calma 8 Oeste 0 1014.9 0.3 81
2019-04-01 00:00:00 18.5 2 Noroeste 11 Noroeste 0 1015.1 0.7 80
2019-03-31 23:00:00 18.5 5 Noroeste 13 Noroeste 0 1015 0.8 82
2019-03-31 22:00:00 18.8 3 Noroeste 13 Nordeste 0 1014.6 0.6 82
2019-03-31 21:00:00 19 4 Noroeste 10 Noroeste 0 1014.4 0.7 82
2019-03-31 20:00:00 19.4 4 Noroeste 8 Nordeste 0 1014.2 0.6 78
2019-03-31 19:00:00 20 3 Norte 11 Nordeste 0 1014 -0.1 75
2019-03-31 18:00:00 20.4 4 Norte 11 Norte 0 1013.7 -0.9 73
2019-03-31 17:00:00 20.3 4 Norte 9 Nordeste 0 1013.6 -1.3 73
2019-03-31 16:00:00 20.4 3 Norte 11 Norte 0 1014.1 -1 75
2019-03-31 15:00:00 19.6 5 Norte 13 Norte 0 1014.6 -0.8 79
2019-03-31 14:00:00 20.1 6 Norte 13 Norte 0 1014.9 -0.8 77
2019-03-31 13:00:00 20.6 5 Norte 12 Norte 0 1015.1 -0.5 75
2019-03-31 12:00:00 20.3 3 Noroeste 10 Noroeste 0 1015.4 0.2 74
2019-03-31 11:00:00 19.4 4 Oeste 12 Noroeste 0 1015.7 0.7 73
2019-03-31 10:00:00 19.1 3 Noroeste 13 Sudeste 0 1015.6 0.8 68
2019-03-31 09:00:00 17.4 4 Sur 14 Sur 0 1015.2 0.8 68
2019-03-31 08:00:00 15.5 5 Sur 13 Sur 0 1015 0.4 69
2019-03-31 07:00:00 15.2 6 Sur 12 Sudeste 0 1014.8 -0.7 67
2019-03-31 06:00:00 15.1 5 Sur 12 Sudeste 0 1014.4 -2 66
2019-03-31 05:00:00 15.1 4 Sur 15 Sur 0 1014.6 -2.2 67
2019-03-31 04:00:00 15.5 6 Sur 23 Sur 0 1015.5 -1.4 70
2019-03-31 00:00:00 15.4 5 Sur 10 Sur 0 1016.9 0.3 71
2019-03-30 23:00:00 16 2 Sur 10 Sudoeste 0 1016.5 1 75
2019-03-30 22:00:00 16.5 2 Sur 10 Sudoeste 0 1017.1 1.6 76
2019-03-30 21:00:00 17.5 4 Sur 9 Sur 0 1016.6 1.8 77
2019-03-30 20:00:00 18.2 2 Oeste 8 Oeste 0 1015.5 0.7 72
2019-03-30 19:00:00 18.8 5 Oeste 10 Oeste 0 1015.5 0.6 69
2019-03-30 18:00:00 20 3 Noroeste 10 Noroeste 0 1014.8 0.1 68
2019-03-30 17:00:00 20 5 Noroeste 14 Noroeste 0 1014.8 -0.4 68
2019-03-30 16:00:00 19.7 6 Noroeste 13 Noroeste 0 1014.9 -0.8 68
2019-03-30 15:00:00 19.7 6 Norte 11 Norte 0 1014.7 -1.2 73
2019-03-30 14:00:00 19.5 6 Nordeste 13 Norte 0 1015.2 -0.7 75
2019-03-30 13:00:00 19.4 9 Nordeste 21 Nordeste 0 1015.7 0 77
2019-03-30 12:00:00 20.6 17 Nordeste 22 Nordeste 0 1015.9 0.5 77
2019-03-30 11:00:00 19 6 Noroeste 10 Noroeste 0 1015.9 0.8 68
2019-03-30 10:00:00 18.6 4 Oeste 10 Noroeste 0 1015.7 0.4 66
2019-03-30 09:00:00 18.1 0 Calma 5 Sudoeste 0 1015.4 1.2 76
2019-03-30 08:00:00 14.6 3 Este 9 Sur 0.6 1015.1 1.1 92
2019-03-30 07:00:00 14.5 6 Este 17 Sudoeste 7.4 1015.3 1.1 98
2019-03-30 06:00:00 14.8 5 Sudeste 16 Norte 0.5 1014.2 -0.1 87
2019-03-30 05:00:00 15.6 4 Sur 11 Sur 0 1014 -0.8 81
2019-03-30 04:00:00 15 5 Sur 11 Sur 0 1014.2 -0.8 78
2019-03-30 03:00:00 14.5 4 Sur 11 Sur 0 1014.3 -1.1 77
2019-03-30 02:00:00 14.3 7 Sur 13 Sudeste 0 1014.8 -0.2 80
2019-03-30 01:00:00 14.8 5 Sur 12 Sudeste 0 1015 -0.2 79
2019-03-30 00:00:00 15.1 2 Sur 17 Sudeste 0 1015.4 0.7 79
2019-03-29 23:00:00 15 6 Sur 15 Sur 0 1015 0.9 79
2019-03-29 22:00:00 15.3 8 Sur 15 Sudeste 0 1015.2 1.5 80
2019-03-29 21:00:00 16.2 6 Sur 15 Sudeste 0 1014.7 0.8 78
2019-03-29 20:00:00 16.7 8 Sur 15 Sudeste 0 1014.1 -0.1 79
2019-03-29 19:00:00 17.6 2 Sur 17 Sudeste 0 1013.7 -0.4 83
2019-03-29 18:00:00 16.6 6 Este 16 Sur 0.4 1013.9 -0.4 84
2019-03-29 17:00:00 16.2 3 Sudeste 15 Este 0.5 1014.2 -0.6 87
2019-03-29 16:00:00 16.4 7 Este 14 Nordeste 0.4 1014.1 -1.1 96
2019-03-29 15:00:00 17.4 10 Nordeste 17 Nordeste 2.3 1014.3 -1.1 96
2019-03-29 14:00:00 17.4 4 Sudeste 14 Noroeste 4.2 1014.8 -0.4 93
2019-03-29 13:00:00 18.3 11 Oeste 27 Oeste 0 1015.2 0.2 91
2019-03-29 12:00:00 18.6 9 Noroeste 17 Noroeste 0 1015.4 0.4 86
2019-03-29 11:00:00 19.8 4 Norte 9 Norte 0 1015.2 0.1 76
2019-03-29 10:00:00 20.6 6 Nordeste 8 Nordeste 0 1015 0.3 74
2019-03-29 09:00:00 20.2 0 Calma 6 Sur 0 1015 0.6 73
2019-03-29 08:00:00 16.8 6 Sur 14 Sur 0 1015.1 0.9 78
2019-03-29 07:00:00 15.5 6 Sur 15 Sur 0 1014.7 0.2 78
2019-03-29 06:00:00 15.8 8 Sur 15 Sur 0 1014.4 -0.2 78
2019-03-29 05:00:00 15.5 5 Sur 15 Sur 0 1014.2 -0.6 78
2019-03-29 04:00:00 15.7 6 Sur 13 Sudeste 0 1014.5 -0.7 78
2019-03-29 03:00:00 16.1 5 Sur 11 Sur 0 1014.6 -1 76
2019-03-29 02:00:00 16.6 5 Sur 9 Sur 0 1014.8 -0.9 76
2019-03-29 01:00:00 17 3 Sur 11 Sur 0 1015.2 -0.6 77
2019-03-29 00:00:00 17.4 4 Sur 9 Sur 0 1015.6 0 80
2019-03-28 23:00:00 17.7 4 Sur 9 Sur 0 1015.7 0.8 83
2019-03-28 22:00:00 18 2 Sur 7 Sur 0 1015.8 1.1 87
2019-03-28 21:00:00 18.5 4 Nordeste 11 Nordeste 0 1015.6 0.8 87
2019-03-28 20:00:00 18.5 5 Nordeste 12 Este 0 1014.9 0.2 87
2019-03-28 19:00:00 18.6 6 Nordeste 9 Nordeste 0 1014.7 0.1 86
2019-03-28 18:00:00 18.4 2 Noroeste 9 Oeste 0 1014.8 0.1 87
2019-03-28 17:00:00 18.3 4 Oeste 9 Noroeste 0 1014.7 0 86
2019-03-28 16:00:00 18.6 5 Oeste 13 Noroeste 0 1014.6 -0.6 86
2019-03-28 15:00:00 19.7 4 Nordeste 14 Nordeste 0 1014.7 -0.5 74
2019-03-28 14:00:00 21.6 11 Nordeste 17 Nordeste 0 1014.7 -1.1 69
2019-03-28 13:00:00 20.4 9 Nordeste 17 Nordeste 0 1015.2 -0.5 69
2019-03-28 12:00:00 22.1 9 Nordeste 13 Este 0 1015.2 -0.7 68
2019-03-28 11:00:00 20.2 8 Nordeste 13 Nordeste 0 1015.8 0 70
2019-03-28 10:00:00 19.7 5 Nordeste 9 Nordeste 0 1015.7 0.1 71
2019-03-28 09:00:00 19.5 0 Calma 8 Sur 0 1015.9 0.7 71
2019-03-28 08:00:00 16.4 3 Sur 12 Sur 0 1015.8 0.9 79
2019-03-28 07:00:00 15 7 Sur 13 Sur 0 1015.6 0.7 83
2019-03-28 06:00:00 15.2 8 Sur 14 Sudeste 0 1015.2 0.2 81
2019-03-28 05:00:00 15.3 6 Sur 15 Sudeste 0 1014.9 -0.1 79
2019-03-28 04:00:00 15.6 6 Sur 13 Sur 0 1014.9 -0.3 83
2019-03-28 03:00:00 16.2 5 Sur 14 Sur 0 1015 -0.6 81
2019-03-28 02:00:00 16.4 6 Sur 12 Sudeste 0 1015 -0.6 81
2019-03-28 01:00:00 17 4 Sur 12 Sur 0 1015.2 0 81
2019-03-28 00:00:00 17.4 3 Sudeste 9 Sudeste 0 1015.6 0.9 81
2019-03-27 23:00:00 17.7 4 Sur 10 Sudeste 0 1015.6 1.5 83
2019-03-27 22:00:00 18.2 3 Sudeste 9 Sudeste 0 1015.2 1.4 84
2019-03-27 21:00:00 19.1 4 Nordeste 12 Nordeste 0 1014.7 1.6 81
2019-03-27 20:00:00 19.4 8 Nordeste 12 Norte 0 1014.1 1.3 79
2019-03-27 19:00:00 19.3 5 Nordeste 9 Norte 0 1013.8 1.1 79
2019-03-27 18:00:00 20.5 4 Nordeste 10 Este 0 1013.1 0.1 73
2019-03-27 17:00:00 20.7 5 Nordeste 14 Nordeste 0 1012.8 -0.4 72
2019-03-27 16:00:00 21.4 6 Nordeste 13 Nordeste 0 1012.7 -0.6 71
2019-03-27 15:00:00 21.3 6 Nordeste 12 Nordeste 0 1013 -0.6 72
2019-03-27 14:00:00 20.4 7 Nordeste 14 Nordeste 0 1013.2 -0.8 73
2019-03-27 13:00:00 22.3 11 Nordeste 15 Nordeste 0 1013.3 -0.4 69
2019-03-27 12:00:00 22 12 Nordeste 17 Nordeste 0 1013.6 0.3 73
2019-03-27 11:00:00 21.5 9 Nordeste 13 Norte 0 1014 1 76
2019-03-27 10:00:00 20.3 6 Nordeste 9 Norte 0 1013.7 1.2 77
2019-03-27 09:00:00 19.3 0 Calma 8 Sur 0 1013.3 1.7 79
2019-03-27 08:00:00 17.1 5 Sur 13 Sudeste 0 1013 2.1 81
2019-03-27 07:00:00 16.8 6 Sur 12 Sur 0 1012.5 1.7 79
2019-03-27 06:00:00 16.6 5 Sur 10 Sudeste 0 1011.6 0.4 82
2019-03-27 05:00:00 17.1 2 Sur 8 Sudeste 0 1010.9 -0.5 81
2019-03-27 04:00:00 17.5 0 Calma 8 Sudeste 0 1010.8 -0.5 83
2019-03-27 03:00:00 17.4 4 Sur 9 Sur 0 1011.2 0.1 77
2019-03-27 02:00:00 17.8 2 Sur 10 Sur 0 1011.4 0.4 74
2019-03-27 01:00:00 17.2 4 Sur 9 Sur 0 1011.3 0.6 73
2019-03-27 00:00:00 18.2 2 Sur 7 Sur 0 1011.1 1 74
2019-03-26 23:00:00 17.7 3 Sur 10 Sur 0 1011 1.8 71
2019-03-26 22:00:00 17.7 2 Sur 8 Sudeste 0 1010.7 2.6 80
2019-03-26 21:00:00 19 0 Calma 6 Nordeste 0 1010.1 3 82
2019-03-26 20:00:00 19.8 0 Calma 9 Nordeste 0 1009.2 2.8 78
2019-03-26 19:00:00 20.3 7 Nordeste 11 Nordeste 0 1008.1 1.4 74
2019-03-26 18:00:00 22.7 6 Nordeste 14 Nordeste 0 1007.1 0.6 66
2019-03-26 17:00:00 23 8 Nordeste 13 Norte 0 1006.4 0.2 65
2019-03-26 16:00:00 20.4 5 Norte 12 Norte 0 1006.7 0.1 73
2019-03-26 15:00:00 20.8 5 Norte 12 Noroeste 0 1006.5 -0.5 70
2019-03-26 14:00:00 20.4 5 Norte 10 Norte 0 1006.2 -1 70
2019-03-26 13:00:00 20.6 6 Nordeste 10 Norte 0 1006.6 0.1 72
2019-03-26 12:00:00 20.5 4 Norte 10 Norte 0 1007 0.7 75
2019-03-26 11:00:00 19.3 4 Noroeste 10 Noroeste 0 1007.2 0.9 79
2019-03-26 10:00:00 18.3 5 Noroeste 10 Noroeste 0 1006.5 0.9 80
2019-03-26 09:00:00 18.9 0 Calma 10 Sudoeste 0 1006.3 0.8 76
2019-03-26 08:00:00 16.1 2 Sur 8 Sur 0 1006.3 1.2 84
2019-03-26 07:00:00 15.1 3 Sur 9 Sur 0 1005.6 0.6 86
2019-03-26 06:00:00 15 2 Sur 8 Sur 0 1005.5 0.1 86
2019-03-26 05:00:00 14.8 3 Sur 10 Sudeste 0 1005.1 -0.6 87
2019-03-26 04:00:00 15.1 3 Sur 10 Sur 0 1005 -1 87
2019-03-26 03:00:00 14.8 6 Sur 11 Sudeste 0 1005.4 -0.4 84
2019-03-26 02:00:00 15.2 4 Sur 11 Sur 0 1005.7 -0.5 85
2019-03-26 01:00:00 15.4 6 Sur 12 Sur 0 1006 0.1 87
2019-03-26 00:00:00 15.5 3 Sur 8 Sur 0 1005.8 0.3 91
2019-03-25 23:00:00 16.5 0 Calma 8 Sur 0 1006.2 1.2 91
2019-03-25 22:00:00 16.7 0 Calma 10 Sudoeste 0 1005.9 1.5 90
2019-03-25 21:00:00 16.7 5 Oeste 13 Sudoeste 0 1005.5 1.2 90
2019-03-25 20:00:00 17.4 2 Este 8 Nordeste 0 1005 0.9 87
2019-03-25 19:00:00 17.5 0 Calma 5 Noroeste 0 1004.4 0.7 84
2019-03-25 18:00:00 18.1 0 Calma 9 Norte 0.2 1004.3 0 86
2019-03-25 17:00:00 17.9 7 Nordeste 13 Nordeste 0 1004.1 -0.9 81
2019-03-25 16:00:00 19.4 6 Nordeste 12 Noroeste 0 1003.7 -2.8 76
2019-03-25 15:00:00 18 3 Noroeste 18 Oeste 0 1004.3 -3.5 81
2019-03-25 14:00:00 17.2 5 Oeste 18 Nordeste 1.1 1005 -2.4 91
2019-03-25 13:00:00 16.9 12 Nordeste 18 Nordeste 0.7 1006.5 -1.3 94
2019-03-25 12:00:00 16.9 3 Noroeste 21 Este 0 1007.8 0.2 91
2019-03-25 11:00:00 16.8 5 Nordeste 15 Nordeste 0.6 1007.4 0.6 93
2019-03-25 10:00:00 15.9 3 Oeste 12 Oeste 3 1007.8 1.2 94
2019-03-25 09:00:00 16.2 7 Oeste 26 Oeste 0.6 1007.6 1.5 93
2019-03-25 08:00:00 17.2 3 Sur 10 Sur 0 1006.8 0.4 74
2019-03-25 07:00:00 16.1 4 Sur 12 Sur 0 1006.6 -0.2 72
2019-03-25 06:00:00 16 4 Sur 12 Sudeste 0 1006.1 -1.1 70
2019-03-25 05:00:00 16.1 5 Sur 10 Sur 0 1006.4 -1.2 69
2019-03-25 04:00:00 16.5 3 Sur 10 Sur 0 1006.8 -1.3 70
2019-03-25 03:00:00 16.3 3 Sur 7 Sur 0 1007.2 -1.5 71
2019-03-25 02:00:00 16.6 3 Sur 13 Sudeste 0 1007.6 -1.4 69
2019-03-25 01:00:00 16.9 5 Sur 10 Sur 0 1008.1 -1 70
2019-03-25 00:00:00 17.2 4 Sur 8 Sur 0 1008.7 -0.4 69
2019-03-24 23:00:00 17.6 3 Sur 8 Sudeste 0 1009 0.3 71
2019-03-24 22:00:00 18.3 2 Este 10 Nordeste 0 1009.1 1 79
2019-03-24 21:00:00 18.6 4 Nordeste 9 Norte 0 1009.1 1.4 77
2019-03-24 20:00:00 18.8 5 Este 12 Nordeste 0 1008.7 0.5 73
2019-03-24 19:00:00 19.2 9 Nordeste 17 Nordeste 0 1008.1 -1 69
2019-03-24 18:00:00 20.9 12 Nordeste 27 Este 0 1007.7 -1.9 64
2019-03-24 17:00:00 20.5 8 Nordeste 12 Nordeste 0 1008.2 -1.9 66
2019-03-24 16:00:00 19.3 0 Calma 8 Norte 0 1009.1 -1.2 67
2019-03-24 15:00:00 19.3 4 Nordeste 10 Norte 0 1009.6 -1.2 67
2019-03-24 14:00:00 19.8 8 Nordeste 15 Nordeste 0 1010.1 -0.7 67
2019-03-24 13:00:00 20.2 11 Nordeste 19 Nordeste 0 1010.3 -1.6 66
2019-03-24 12:00:00 20 16 Nordeste 26 Nordeste 0 1010.8 -1 68
2019-03-24 11:00:00 20.5 19 Nordeste 25 Nordeste 0 1010.8 -1 68
2019-03-24 10:00:00 19.1 14 Nordeste 19 Nordeste 0 1011.9 0.4 73
2019-03-24 09:00:00 17.9 0 Calma 7 Sur 0 1011.8 1 68
2019-03-24 08:00:00 17.2 4 Sur 10 Sudeste 0 1011.8 1.1 66
2019-03-24 07:00:00 16.9 4 Sudeste 10 Sudeste 0 1011.5 0.2 73
2019-03-24 06:00:00 17.1 3 Sur 16 Este 0 1010.8 -1 70
2019-03-24 05:00:00 17.4 4 Sudeste 9 Sudeste 0 1010.7 -1.5 74
2019-03-24 04:00:00 17.3 2 Sur 7 Sudeste 0 1011.3 -1.3 76
2019-03-24 03:00:00 17.4 2 Este 16 Nordeste 0 1011.8 -0.9 79
2019-03-24 02:00:00 17.9 11 Nordeste 21 Nordeste 0 1012.2 -1.3 82
2019-03-24 01:00:00 17.9 14 Nordeste 18 Nordeste 0 1012.6 -0.8 81
2019-03-24 00:00:00 17.6 5 Sudeste 11 Este 0 1012.7 -0.6 74
2019-03-23 23:00:00 17.2 4 Sur 12 Sur 0 1013.5 0.4 70
2019-03-23 22:00:00 17.4 5 Sudeste 16 Este 0 1013.4 0.7 73
2019-03-23 21:00:00 18 13 Este 23 Nordeste 0 1013.3 0.6 77
2019-03-23 20:00:00 18.3 17 Nordeste 23 Nordeste 0 1013.1 0.3 77
2019-03-23 19:00:00 18.8 15 Nordeste 23 Nordeste 0 1012.7 -0.2 76
2019-03-23 18:00:00 19.3 14 Nordeste 21 Nordeste 0 1012.7 -0.8 73
2019-03-23 17:00:00 19.4 11 Nordeste 21 Nordeste 0 1012.8 -1 72
2019-03-23 16:00:00 19.4 13 Este 21 Nordeste 0 1012.9 -1.2 73
2019-03-23 15:00:00 19.4 15 Nordeste 22 Este 0 1013.5 -0.9 70
2019-03-23 14:00:00 19.5 14 Nordeste 23 Nordeste 0 1013.8 -1.1 67
2019-03-23 13:00:00 19.3 14 Nordeste 25 Nordeste 0 1014.1 -0.9 69
2019-03-23 12:00:00 19 22 Nordeste 28 Nordeste 0 1014.4 -0.6 73
2019-03-23 11:00:00 19.3 14 Nordeste 40 Nordeste 0 1014.9 -0.1 73
2019-03-23 10:00:00 18.6 9 Nordeste 15 Nordeste 0 1015 0.5 75
2019-03-23 09:00:00 18 9 Este 15 Este 0 1015 0.8 72
2019-03-23 08:00:00 17.4 3 Sudeste 18 Nordeste 0 1015 1 72
2019-03-23 07:00:00 17.3 3 Sudeste 16 Nordeste 0 1014.5 0.2 74
2019-03-23 06:00:00 17.6 9 Este 28 Nordeste 0 1014.2 -0.5 78
2019-03-23 05:00:00 17.7 19 Nordeste 29 Nordeste 0 1014 -1.2 79
2019-03-23 04:00:00 17.7 6 Este 21 Este 0 1014.3 -1.1 79
2019-03-23 03:00:00 17.5 4 Sudeste 18 Este 0 1014.7 -0.6 77
2019-03-23 02:00:00 17.3 5 Sudeste 18 Sudeste 0 1015.2 -0.4 73
2019-03-23 01:00:00 16.9 6 Sudeste 13 Este 0 1015.4 0.4 74
2019-03-23 00:00:00 17.5 8 Sudeste 18 Sudeste 0 1015.3 0.5 74
2019-03-22 23:00:00 17.2 5 Sudeste 20 Este 0 1015.6 1.5 74
2019-03-22 22:00:00 18 13 Este 22 Este 0 1015 1.3 80
2019-03-22 21:00:00 18 13 Este 28 Este 0 1014.8 1.2 78
2019-03-22 20:00:00 18.2 19 Este 30 Este 0 1014.1 0.6 79
2019-03-22 19:00:00 18.3 22 Nordeste 30 Nordeste 0 1013.7 0 78
2019-03-22 18:00:00 18.5 21 Nordeste 29 Nordeste 0 1013.6 -0.3 79
2019-03-22 17:00:00 18.6 22 Nordeste 28 Este 0 1013.5 -0.9 76
2019-03-22 16:00:00 18.8 21 Nordeste 34 Nordeste 0 1013.7 -1.3 75
2019-03-22 15:00:00 19.1 26 Nordeste 36 Nordeste 0 1013.9 -1.6 76
2019-03-22 14:00:00 19 28 Nordeste 37 Nordeste 0 1014.4 -1.4 74
2019-03-22 13:00:00 19.2 26 Nordeste 34 Este 0 1015 -1.1 75
2019-03-22 12:00:00 18.7 24 Nordeste 34 Nordeste 0 1015.5 -0.3 72
2019-03-22 11:00:00 18.9 21 Nordeste 32 Este 0 1015.8 0.4 69
2019-03-22 10:00:00 18.1 14 Este 31 Este 0 1016.1 1 71
2019-03-22 09:00:00 17.7 11 Este 21 Nordeste 0 1015.8 1.1 72
2019-03-22 08:00:00 17.4 10 Este 29 Este 0 1015.4 0.9 71
2019-03-22 07:00:00 17.4 12 Este 22 Este 0 1015.1 0.3 74
2019-03-22 06:00:00 17.2 6 Sudeste 19 Nordeste 0 1014.7 -0.4 70
2019-03-22 05:00:00 17 8 Sudeste 22 Este 0 1014.5 -0.9 71
2019-03-22 04:00:00 16.8 6 Sur 21 Este 0 1014.8 -1.1 73
2019-03-22 03:00:00 17.2 5 Sudeste 14 Este 0 1015.1 -0.9 73
2019-03-22 02:00:00 17.1 4 Sudeste 12 Sur 0 1015.4 -0.3 73
2019-03-22 01:00:00 17.2 5 Sur 14 Este 0 1015.9 0.2 74
2019-03-22 00:00:00 17.5 6 Sudeste 17 Este 0 1016 1.3 75
2019-03-21 23:00:00 17.9 17 Nordeste 26 Nordeste 0 1015.7 1.4 80
2019-03-21 22:00:00 18.1 19 Nordeste 36 Nordeste 0 1015.7 1.7 82
2019-03-21 21:00:00 18.2 24 Nordeste 43 Este 0 1014.7 1.2 82
2019-03-21 20:00:00 18.4 29 Nordeste 46 Nordeste 0 1014.3 0.9 83
2019-03-21 19:00:00 18.8 30 Nordeste 50 Nordeste 0 1014 0.5 82
2019-03-21 18:00:00 19.3 22 Nordeste 46 Nordeste 0 1013.5 -0.3 79
2019-03-21 17:00:00 20 26 Nordeste 57 Nordeste 0 1013.4 -0.8 76
2019-03-21 16:00:00 20.3 28 Nordeste 46 Este 0 1013.5 -1.1 77
2019-03-21 15:00:00 20.9 33 Nordeste 50 Nordeste 0 1013.8 -1 75
2019-03-21 14:00:00 21.1 28 Nordeste 48 Nordeste 0 1014.2 -1 74
2019-03-21 13:00:00 21.3 25 Nordeste 44 Nordeste 0 1014.6 -0.9 74
2019-03-21 12:00:00 19.5 26 Nordeste 41 Nordeste 0 1014.8 -0.3 78
2019-03-21 11:00:00 20.9 15 Nordeste 29 Nordeste 0 1015.2 -0.2 70
2019-03-21 10:00:00 18.9 3 Norte 11 Norte 0 1015.5 0.9 72
2019-03-21 09:00:00 18.8 0 Calma 14 Sur 0 1015.1 0.8 73
2019-03-21 08:00:00 15.5 4 Sur 18 Sudeste 0 1015.4 1.2 81
2019-03-21 07:00:00 15.1 4 Sur 10 Sur 0 1014.6 0.2 85
2019-03-21 06:00:00 15.3 3 Sur 13 Sur 0 1014.3 -0.5 85
2019-03-21 05:00:00 15.6 4 Sur 11 Sudeste 0 1014.2 -1.1 83
2019-03-21 04:00:00 16.1 5 Sur 12 Sur 0 1014.4 -1.1 82
2019-03-21 03:00:00 16.6 5 Sur 14 Sur 0 1014.8 -1.1 81
2019-03-21 02:00:00 16.2 6 Sudeste 15 Sur 0 1015.3 -1 79
2019-03-21 01:00:00 16.8 3 Sur 12 Sur 0 1015.5 -0.9 77
2019-03-21 00:00:00 17.6 4 Sudeste 15 Sur 0 1015.9 0.1 74
2019-03-20 23:00:00 17.9 3 Sudeste 12 Sudeste 0 1016.3 1.1 74
2019-03-20 22:00:00 18 5 Sudeste 27 Este 0 1016.4 1.7 74
2019-03-20 21:00:00 18.5 21 Nordeste 31 Este 0 1015.8 1.5 81
2019-03-20 20:00:00 18.5 20 Nordeste 30 Nordeste 0 1015.2 1 82
2019-03-20 19:00:00 18.8 21 Nordeste 31 Nordeste 0 1014.7 0.6 83
2019-03-20 18:00:00 19.2 24 Nordeste 32 Nordeste 0 1014.3 -0.1 79
2019-03-20 17:00:00 19.4 23 Nordeste 31 Nordeste 0 1014.2 -0.2 80
2019-03-20 16:00:00 19.7 23 Nordeste 33 Nordeste 0 1014.1 -1.4 80
2019-03-20 15:00:00 19.6 24 Nordeste 39 Nordeste 0 1014.4 -1.5 78
2019-03-20 14:00:00 20.2 26 Nordeste 38 Nordeste 0 1014.4 -1.6 76
2019-03-20 13:00:00 20.2 25 Nordeste 40 Nordeste 0 1015.5 -1 75
2019-03-20 12:00:00 20.1 22 Nordeste 37 Nordeste 0 1015.9 -0.7 73
2019-03-20 11:00:00 21.1 16 Nordeste 31 Este 0 1016 -0.3 68
2019-03-20 10:00:00 19.2 5 Norte 12 Este 0 1016.5 0.4 67
2019-03-20 09:00:00 18.2 11 Este 25 Este 0 1016.6 0.9 72
2019-03-20 08:00:00 17.6 13 Este 20 Nordeste 0 1016.3 0.7 76
2019-03-20 07:00:00 17.3 4 Sudeste 15 Sudeste 0 1016.1 0.3 69
2019-03-20 06:00:00 16.9 5 Sudeste 15 Sur 0 1015.7 -0.6 69
2019-03-20 05:00:00 17.1 5 Sudeste 14 Sur 0 1015.6 -1.2 70
2019-03-20 04:00:00 16.8 5 Sudeste 17 Sur 0 1015.8 -1.5 69
2019-03-20 03:00:00 16.9 6 Sudeste 15 Sudeste 0 1016.3 -1.7 69
2019-03-20 02:00:00 17.2 4 Sudeste 13 Este 0 1016.8 -1.4 69
2019-03-20 01:00:00 17 7 Sur 14 Sudeste 0 1017.3 -1 69
2019-03-20 00:00:00 17.5 4 Sudeste 16 Sudeste 0 1018 0 69
2019-03-19 23:00:00 17.5 6 Sudeste 16 Sudeste 0 1018.2 0.8 69
2019-03-19 22:00:00 17.9 6 Sudeste 22 Este 0 1018.3 1.4 69
2019-03-19 21:00:00 18.2 9 Este 28 Nordeste 0 1018 0.9 70
2019-03-19 20:00:00 18.1 20 Nordeste 30 Nordeste 0 1017.4 0.7 74
2019-03-19 19:00:00 18.2 20 Nordeste 26 Nordeste 0 1016.9 0.1 78
2019-03-19 18:00:00 18.3 16 Nordeste 27 Nordeste 0 1017.1 -0.3 77
2019-03-19 17:00:00 18.6 23 Nordeste 32 Nordeste 0 1016.7 -1.2 78
2019-03-19 16:00:00 19.1 22 Nordeste 29 Nordeste 0 1016.8 -1.3 74
2019-03-19 15:00:00 19.3 20 Nordeste 29 Nordeste 0 1017.4 -1.5 71
2019-03-19 14:00:00 19.2 22 Nordeste 32 Nordeste 0 1017.9 -1 72
2019-03-19 13:00:00 19.1 24 Nordeste 35 Este 0 1018.1 -0.7 72
2019-03-19 12:00:00 19.3 26 Nordeste 38 Nordeste 0 1018.9 0.3 73
2019-03-19 11:00:00 18.8 28 Nordeste 37 Nordeste 0 1018.9 0.4 74
2019-03-19 10:00:00 18.9 27 Nordeste 35 Nordeste 0 1018.8 0.7 75
2019-03-19 09:00:00 18.6 16 Nordeste 21 Nordeste 0 1018.6 0.8 69
2019-03-19 08:00:00 17.5 15 Este 31 Este 0 1018.5 0.5 78
2019-03-19 07:00:00 17.5 18 Nordeste 26 Este 0 1018.1 0.2 81
2019-03-19 06:00:00 17.4 14 Este 26 Nordeste 0 1017.8 -0.9 81
2019-03-19 05:00:00 16.9 5 Sudeste 22 Nordeste 0.1 1018 -1.1 87
2019-03-19 04:00:00 17.7 4 Este 18 Este 0 1017.9 -1.4 74
2019-03-19 03:00:00 18.1 6 Este 13 Este 0 1018.7 -0.9 70
2019-03-19 02:00:00 17.8 5 Sur 12 Sur 0 1019.1 -0.6 69
2019-03-19 01:00:00 18.2 4 Sudeste 24 Nordeste 0 1019.3 -0.3 72
2019-03-19 00:00:00 18.3 8 Este 20 Este 0 1019.6 0.3 74